createdAt,value
2018-11-26T04:14:14.495Z,8.20
2018-11-26T04:16:42.948Z,8.20
2018-11-26T06:50:22.311Z,8.40
2018-11-26T06:52:50.753Z,8.40
2018-11-26T06:55:20.296Z,8.40
2018-11-26T06:57:48.745Z,8.40
2018-11-26T07:00:18.434Z,8.40
2018-11-26T07:02:46.871Z,8.40
2018-11-26T09:49:58.427Z,8.50
2018-11-26T09:52:26.827Z,8.50
2018-11-26T09:54:55.202Z,8.50
2018-11-26T09:57:23.651Z,8.50
2018-11-26T09:59:52.023Z,8.60
2018-11-26T10:02:20.430Z,8.50
2018-11-26T10:04:48.832Z,8.50
2018-11-26T10:07:17.262Z,8.40
2018-11-26T10:09:45.647Z,8.60
2018-11-26T10:12:14.051Z,8.60
2018-11-26T10:14:42.475Z,8.50
2018-11-26T10:17:10.895Z,8.60
2018-11-26T10:19:39.282Z,8.70
2018-11-26T10:22:07.732Z,8.70
2018-11-26T10:24:36.146Z,8.70
2018-11-26T10:27:04.562Z,8.70
2018-11-26T10:29:32.950Z,8.70
2018-11-26T10:32:01.406Z,8.70
2018-11-26T10:34:29.787Z,8.70
2018-11-26T10:36:58.279Z,8.70
2018-11-26T10:39:26.699Z,8.70
2018-11-26T10:41:55.134Z,8.70
2018-11-26T10:44:23.580Z,8.70
2018-11-26T10:46:51.977Z,8.70
2018-11-26T10:49:20.376Z,8.70
2018-11-26T10:51:48.800Z,8.70
2018-11-26T10:54:17.241Z,8.70
2018-11-26T10:56:45.677Z,8.70
2018-11-26T10:59:14.133Z,8.70
2018-11-26T11:01:46.663Z,8.70
2018-11-26T11:04:15.056Z,8.70
2018-11-26T11:06:43.461Z,8.80
2018-11-26T11:09:11.845Z,8.80
2018-11-26T11:11:40.260Z,8.70
2018-11-26T11:14:08.725Z,8.70
2018-11-26T11:16:37.180Z,8.70
2018-11-26T11:19:05.649Z,8.70
2018-11-26T11:21:34.067Z,8.70
2018-11-26T11:24:02.448Z,8.80
2018-11-26T11:26:30.866Z,8.80
2018-11-26T11:28:59.250Z,8.90
2018-11-26T11:31:27.661Z,9.00
2018-11-26T11:33:56.095Z,9.00
2018-11-26T11:36:24.576Z,9.00
2018-11-26T11:38:53.081Z,9.10
2018-11-26T11:41:21.538Z,9.00
2018-11-26T11:43:49.950Z,9.00
2018-11-26T11:46:18.359Z,9.10
2018-11-26T11:48:46.905Z,9.10
2018-11-26T11:51:15.301Z,9.20
2018-11-26T11:53:43.762Z,9.20
2018-11-26T11:56:12.193Z,9.20
2018-11-26T11:58:40.605Z,9.20
2018-11-26T12:01:10.692Z,9.30
2018-11-26T12:03:37.873Z,9.30
2018-11-26T12:06:06.370Z,9.30
2018-11-26T12:08:34.825Z,9.30
2018-11-26T12:11:03.232Z,9.30
2018-11-26T12:13:31.636Z,9.30
2018-11-26T12:16:00.043Z,9.20
2018-11-26T12:18:28.438Z,9.20
2018-11-26T12:20:56.868Z,9.20
2018-11-26T12:23:25.265Z,9.30
2018-11-26T12:25:53.666Z,9.20
2018-11-26T12:28:22.116Z,9.20
2018-11-26T12:30:50.553Z,9.20
2018-11-26T12:33:18.973Z,9.20
2018-11-26T12:35:47.379Z,9.20
2018-11-26T12:38:15.807Z,9.20
2018-11-26T12:40:44.315Z,9.20
2018-11-26T12:43:12.722Z,9.30
2018-11-26T12:45:41.101Z,9.20
2018-11-26T12:48:09.522Z,9.30
2018-11-26T12:50:37.942Z,9.30
2018-11-26T12:53:06.726Z,9.30
2018-11-26T12:55:37.461Z,9.30
2018-11-26T12:58:07.313Z,9.30
2018-11-26T13:00:36.745Z,9.30
2018-11-26T13:03:10.512Z,9.30
2018-11-26T13:05:38.948Z,9.40
2018-11-26T13:08:08.005Z,9.40
2018-11-26T13:10:36.903Z,9.40
2018-11-26T13:13:05.952Z,9.40
2018-11-26T13:15:34.393Z,9.40
2018-11-26T13:18:02.857Z,9.40
2018-11-26T13:20:31.677Z,9.40
2018-11-26T13:23:00.091Z,9.30
2018-11-26T13:25:31.774Z,9.40
2018-11-26T13:28:01.494Z,9.40
2018-11-26T13:30:43.229Z,9.40
2018-11-26T13:33:16.155Z,9.40
2018-11-26T13:35:45.558Z,9.40
2018-11-26T13:38:14.109Z,9.40
2018-11-26T13:40:42.528Z,9.40
2018-11-26T13:43:13.454Z,9.30
2018-11-26T13:45:43.373Z,9.30
2018-11-26T13:48:13.284Z,9.20
2018-11-26T13:50:46.485Z,9.20
2018-11-26T13:53:14.882Z,9.20
2018-11-26T13:55:43.313Z,9.30
2018-11-26T13:58:11.730Z,9.30
2018-11-26T14:00:40.176Z,9.40
2018-11-26T14:03:08.637Z,9.40
2018-11-26T14:05:37.042Z,9.40
2018-11-26T14:08:05.843Z,9.30
2018-11-26T14:10:34.269Z,9.30
2018-11-26T14:13:11.181Z,9.30
2018-11-26T14:15:39.755Z,9.40
2018-11-26T14:18:08.168Z,9.40
2018-11-26T14:20:36.558Z,9.30
2018-11-26T14:23:05.128Z,9.30
2018-11-26T14:25:33.604Z,9.30
2018-11-26T14:28:02.012Z,9.30
2018-11-26T14:30:30.718Z,9.20
2018-11-26T14:32:59.161Z,9.30
2018-11-26T14:35:27.653Z,9.20
2018-11-26T14:38:01.520Z,9.20
2018-11-26T14:40:31.237Z,9.20
2018-11-26T14:42:59.631Z,9.20
2018-11-26T14:45:28.054Z,9.10
2018-11-26T14:47:56.455Z,9.20
2018-11-26T14:50:24.972Z,9.20
2018-11-26T14:52:53.376Z,9.20
2018-11-26T14:55:24.148Z,9.20
2018-11-26T14:57:52.577Z,9.20
2018-11-26T15:00:21.400Z,9.20
2018-11-26T15:02:49.842Z,9.20
2018-11-26T15:05:18.288Z,9.30
2018-11-26T15:07:46.750Z,9.20
2018-11-26T15:10:18.232Z,9.20
2018-11-26T15:12:46.923Z,9.20
2018-11-26T15:15:16.627Z,9.20
2018-11-26T15:17:45.602Z,9.20
2018-11-26T15:20:18.999Z,9.20
2018-11-26T15:22:47.768Z,9.10
2018-11-26T15:25:17.510Z,9.10
2018-11-26T15:27:45.951Z,9.00
2018-11-26T15:30:17.518Z,9.10
2018-11-26T15:32:45.977Z,9.00
2018-11-26T15:35:15.476Z,9.00
2018-11-26T15:37:44.007Z,8.90
2018-11-26T15:40:13.521Z,9.00
2018-11-26T15:42:41.989Z,9.10
2018-11-26T15:45:22.260Z,9.10
2018-11-26T15:47:51.667Z,9.00
2018-11-26T15:50:20.214Z,9.10
2018-11-26T15:52:48.658Z,9.10
2018-11-26T15:55:18.499Z,9.20
2018-11-26T15:57:46.949Z,9.10
2018-11-26T16:00:24.571Z,9.10
2018-11-26T16:02:53.361Z,9.10
2018-11-26T16:05:26.810Z,9.10
2018-11-26T16:07:57.748Z,9.00
2018-11-26T16:10:26.203Z,9.00
2018-11-26T16:12:56.956Z,9.10
2018-11-26T16:15:27.899Z,9.10
2018-11-26T16:17:58.096Z,9.00
2018-11-26T16:47:30.495Z,9.00
2018-11-26T16:49:58.893Z,9.00
2018-11-26T16:52:27.370Z,9.00
2018-11-26T16:54:55.756Z,9.00
2018-11-26T16:57:24.165Z,9.00
2018-11-26T16:59:52.566Z,9.00
2018-11-26T17:02:21.029Z,9.00
2018-11-26T17:04:49.416Z,9.10
2018-11-26T17:07:17.880Z,9.00
2018-11-26T17:09:46.292Z,8.90
2018-11-26T17:12:14.711Z,9.00
2018-11-26T17:14:43.171Z,9.00
2018-11-26T17:17:11.569Z,9.00
2018-11-26T17:19:40.017Z,9.00
2018-11-26T17:22:08.427Z,8.90
2018-11-26T17:24:36.903Z,9.00
2018-11-26T17:27:05.431Z,9.00
2018-11-26T17:29:33.878Z,8.90
2018-11-26T17:32:02.272Z,9.00
2018-11-26T17:34:30.693Z,9.00
2018-11-26T17:36:59.071Z,9.00
2018-11-26T17:39:27.456Z,9.10
2018-11-26T17:41:55.858Z,9.00
2018-11-26T17:44:24.305Z,9.00
2018-11-26T17:46:52.718Z,8.90
2018-11-26T17:49:21.164Z,8.90
2018-11-26T17:51:49.597Z,8.90
2018-11-26T17:54:18.018Z,8.80
2018-11-26T17:56:46.417Z,8.80
2018-11-26T17:59:14.828Z,8.80
2018-11-26T18:01:45.174Z,8.80
2018-11-26T18:04:13.600Z,8.80
2018-11-26T18:06:47.262Z,8.80
2018-11-26T18:09:11.883Z,8.80
2018-11-26T18:11:40.297Z,8.80
2018-11-26T18:14:08.758Z,8.80
2018-11-26T18:16:37.206Z,8.80
2018-11-26T18:19:06.394Z,8.80
2018-11-26T18:21:34.813Z,8.70
2018-11-26T18:24:03.305Z,8.70
2018-11-26T18:26:31.740Z,8.70
2018-11-26T18:29:00.178Z,8.80
2018-11-26T18:31:28.582Z,8.80
2018-11-26T18:33:57.044Z,8.80
2018-11-26T18:36:25.449Z,8.80
2018-11-26T18:38:53.908Z,8.90
2018-11-26T18:41:22.345Z,8.80
2018-11-26T18:43:50.753Z,8.80
2018-11-26T18:46:19.169Z,8.80
2018-11-26T18:48:47.570Z,8.80
2018-11-26T18:51:15.985Z,8.90
2018-11-26T18:53:44.381Z,8.90
2018-11-26T18:56:12.769Z,8.90
2018-11-26T18:58:41.216Z,8.90
2018-11-26T19:01:09.671Z,8.90
2018-11-26T19:03:38.079Z,8.90
2018-11-26T19:06:06.762Z,8.80
2018-11-26T19:08:35.172Z,8.80
2018-11-26T19:11:07.134Z,8.70
2018-11-26T19:13:40.924Z,8.70
2018-11-26T19:16:14.439Z,8.60
2018-11-26T19:18:42.843Z,8.60
2018-11-26T19:21:11.297Z,8.70
2018-11-26T19:23:39.753Z,8.60
2018-11-26T19:26:08.184Z,8.70
2018-11-26T19:28:36.654Z,8.70
2018-11-26T19:31:06.139Z,8.70
2018-11-26T19:33:34.604Z,8.60
2018-11-26T19:36:03.027Z,8.60
2018-11-26T19:38:31.453Z,8.60
2018-11-26T19:40:59.917Z,8.50
2018-11-26T19:43:28.369Z,8.50
2018-11-26T19:45:56.834Z,8.50
2018-11-26T19:48:25.246Z,8.50
2018-11-26T19:50:53.665Z,8.50
2018-11-26T19:53:22.118Z,8.50
2018-11-26T19:55:51.510Z,8.50
2018-11-26T19:58:19.043Z,8.50
2018-11-26T20:00:47.461Z,8.40
2018-11-26T20:03:20.519Z,8.50
2018-11-26T20:06:03.867Z,8.50
2018-11-26T20:08:32.329Z,8.40
2018-11-26T20:11:00.765Z,8.50
2018-11-26T20:13:29.158Z,8.50
2018-11-26T20:15:57.612Z,8.50
2018-11-26T20:18:28.475Z,8.50
2018-11-26T20:20:54.523Z,8.40
2018-11-26T20:23:22.962Z,8.60
2018-11-26T20:25:52.231Z,8.50
2018-11-26T20:28:19.847Z,8.50
2018-11-26T20:30:48.269Z,8.40
2018-11-26T20:33:16.761Z,8.40
2018-11-26T20:35:45.237Z,8.50
2018-11-26T20:38:14.951Z,8.40
2018-11-26T20:40:43.472Z,8.40
2018-11-26T20:43:12.836Z,8.40
2018-11-26T20:45:42.833Z,8.30
2018-11-26T20:48:11.550Z,8.30
2018-11-26T20:50:42.098Z,8.40
2018-11-26T20:53:11.048Z,8.40
2018-11-26T20:55:39.484Z,8.30
2018-11-26T20:58:07.894Z,8.40
2018-11-26T21:00:36.355Z,8.40
2018-11-26T21:03:08.337Z,8.40
2018-11-26T21:05:36.866Z,8.40
2018-11-26T21:08:05.372Z,8.40
2018-11-26T21:10:33.766Z,8.30
2018-11-26T21:13:02.153Z,8.20
2018-11-26T21:15:30.552Z,8.20
2018-11-26T21:17:59.746Z,8.30
2018-11-26T21:20:36.061Z,8.30
2018-11-26T21:23:08.016Z,8.30
2018-11-26T21:25:36.453Z,8.30
2018-11-26T21:28:05.142Z,8.30
2018-11-26T21:30:33.574Z,8.20
2018-11-26T21:33:02.008Z,8.20
2018-11-26T21:35:30.421Z,8.20
2018-11-26T21:37:58.844Z,8.20
2018-11-26T21:40:27.250Z,8.40
2018-11-26T21:42:55.654Z,8.30
2018-11-26T21:45:30.566Z,8.20
2018-11-26T21:47:58.985Z,8.20
2018-11-26T21:50:27.384Z,8.20
2018-11-26T21:52:55.795Z,8.20
2018-11-26T21:55:24.205Z,8.30
2018-11-26T21:57:52.669Z,8.20
2018-11-26T22:00:22.503Z,8.20
2018-11-26T22:02:51.189Z,8.20
2018-11-26T22:05:19.657Z,8.20
2018-11-26T22:07:48.118Z,8.30
2018-11-26T22:10:18.544Z,8.20
2018-11-26T22:12:51.128Z,8.30
2018-11-26T22:15:19.550Z,8.30
2018-11-26T22:17:47.989Z,8.20
2018-11-26T22:20:17.928Z,8.30
2018-11-26T22:22:46.372Z,8.20
2018-11-26T22:25:14.784Z,8.10
2018-11-26T22:27:43.228Z,8.10
2018-11-26T22:30:16.775Z,8.10
2018-11-26T22:32:45.224Z,8.10
2018-11-26T22:35:13.663Z,8.10
2018-11-26T23:51:38.128Z,7.70
2018-11-26T23:54:06.572Z,7.70
2018-11-26T23:56:34.976Z,7.80
2018-11-26T23:59:03.389Z,7.80
